AUA36D LOWW-HTDA
Flight info
| Callsign | AUA36D |
|---|---|
| Flight time | N/A |
| Altitude | 35000 |
| Route | ARSIN DCT KOPRY DCT LURID DCT PODOB DCT PETAK DCT DIMIS UL604 SALUN L604 MEVDA P557 DESDO/N0467F370 P557 NUBAR P309 AVONO/N0470F380 A727 ANTAX/N0469F370 UA727 NV UL445 OKPAB |
| Aircraft | A339/H-SADE1E2E3GHIJ3J5M1P2RWXY/LB2D1 |
Departure
| Time | N/A |
|---|---|
| Airport | Vienna International Airport (LOWW) |
Arrival
| Time | 2026-04-15 06:05 |
|---|---|
| Airport | Julius Nyerere International Airport (HTDA) |
| Time | Latitude | Longitude | Altitude | Speed | Heading |
|---|---|---|---|---|---|
| 2026-04-15 05:22 | -2.84648 | 37.56489 | 35191 ft | 456 kts | 159° |
| 2026-04-15 05:23 | -2.90483 | 37.59073 | 35208 ft | 456 kts | 157° |
| 2026-04-15 05:23 | -2.96305 | 37.61715 | 35213 ft | 456 kts | 157° |
| 2026-04-15 05:24 | -3.02090 | 37.64345 | 35216 ft | 456 kts | 157° |
| 2026-04-15 05:24 | -3.07907 | 37.66990 | 35195 ft | 455 kts | 157° |
| 2026-04-15 05:25 | -3.13679 | 37.69614 | 35171 ft | 455 kts | 157° |
| 2026-04-15 05:25 | -3.19474 | 37.72249 | 35144 ft | 455 kts | 157° |
| 2026-04-15 05:26 | -3.25250 | 37.74875 | 35133 ft | 455 kts | 157° |
| 2026-04-15 05:26 | -3.31039 | 37.77509 | 35122 ft | 455 kts | 156° |
| 2026-04-15 05:27 | -3.36808 | 37.80136 | 35123 ft | 455 kts | 156° |
| 2026-04-15 05:27 | -3.42613 | 37.82781 | 35121 ft | 455 kts | 157° |
| 2026-04-15 05:28 | -3.48385 | 37.85414 | 35115 ft | 454 kts | 157° |
| 2026-04-15 05:28 | -3.54167 | 37.88046 | 35110 ft | 454 kts | 157° |
| 2026-04-15 05:29 | -3.60080 | 37.90332 | 35107 ft | 453 kts | 163° |
| 2026-04-15 05:29 | -3.66240 | 37.92065 | 35104 ft | 452 kts | 166° |
| 2026-04-15 05:30 | -3.72355 | 37.93678 | 35104 ft | 452 kts | 166° |
| 2026-04-15 05:30 | -3.78452 | 37.95282 | 35102 ft | 453 kts | 166° |
| 2026-04-15 05:31 | -3.84507 | 37.97252 | 35103 ft | 454 kts | 160° |
| 2026-04-15 05:31 | -3.90377 | 37.99577 | 35096 ft | 454 kts | 159° |
| 2026-04-15 05:32 | -3.96289 | 38.01942 | 35093 ft | 454 kts | 159° |
| 2026-04-15 05:32 | -4.02168 | 38.04294 | 35091 ft | 454 kts | 159° |
| 2026-04-15 05:33 | -4.08067 | 38.06652 | 35089 ft | 454 kts | 159° |
| 2026-04-15 05:33 | -4.13934 | 38.08998 | 35095 ft | 453 kts | 159° |
| 2026-04-15 05:34 | -4.19826 | 38.11355 | 35093 ft | 453 kts | 159° |
| 2026-04-15 05:34 | -4.25704 | 38.13706 | 35089 ft | 453 kts | 159° |
| 2026-04-15 05:35 | -4.31613 | 38.16070 | 35092 ft | 454 kts | 159° |
| 2026-04-15 05:35 | -4.37513 | 38.18433 | 35107 ft | 454 kts | 159° |
| 2026-04-15 05:36 | -4.43392 | 38.20784 | 35134 ft | 454 kts | 159° |
| 2026-04-15 05:36 | -4.49255 | 38.23131 | 35173 ft | 453 kts | 159° |
| 2026-04-15 05:37 | -4.55139 | 38.25487 | 35207 ft | 453 kts | 159° |
| 2026-04-15 05:37 | -4.61069 | 38.27861 | 35111 ft | 452 kts | 159° |
| 2026-04-15 05:38 | -4.64007 | 38.29037 | 34380 ft | 457 kts | 159° |
| 2026-04-15 05:38 | -4.66992 | 38.30228 | 33282 ft | 466 kts | 159° |
| 2026-04-15 05:38 | -4.70017 | 38.31438 | 32401 ft | 470 kts | 159° |
| 2026-04-15 05:38 | -4.73090 | 38.32669 | 31739 ft | 469 kts | 158° |
| 2026-04-15 05:39 | -4.76115 | 38.33885 | 31109 ft | 469 kts | 159° |
| 2026-04-15 05:39 | -4.79150 | 38.35104 | 30504 ft | 468 kts | 159° |
| 2026-04-15 05:39 | -4.82173 | 38.36317 | 29940 ft | 466 kts | 159° |
| 2026-04-15 05:39 | -4.85156 | 38.37514 | 29417 ft | 463 kts | 159° |
| 2026-04-15 05:40 | -4.88167 | 38.38724 | 28994 ft | 458 kts | 159° |
| 2026-04-15 05:40 | -4.91098 | 38.39902 | 28702 ft | 450 kts | 159° |
| 2026-04-15 05:40 | -4.94015 | 38.41074 | 28400 ft | 449 kts | 159° |
| 2026-04-15 05:40 | -4.96946 | 38.42254 | 28090 ft | 448 kts | 159° |
| 2026-04-15 05:41 | -4.99822 | 38.43408 | 27786 ft | 446 kts | 159° |
| 2026-04-15 05:41 | -5.02716 | 38.44569 | 27486 ft | 444 kts | 159° |
| 2026-04-15 05:41 | -5.05589 | 38.45754 | 27185 ft | 442 kts | 157° |
| 2026-04-15 05:41 | -5.08359 | 38.47062 | 26868 ft | 441 kts | 154° |
| 2026-04-15 05:42 | -5.11104 | 38.48488 | 26408 ft | 440 kts | 153° |
| 2026-04-15 05:42 | -5.13835 | 38.49929 | 25869 ft | 439 kts | 153° |
| 2026-04-15 05:42 | -5.16539 | 38.51363 | 25380 ft | 437 kts | 153° |
| 2026-04-15 05:42 | -5.19204 | 38.52777 | 24951 ft | 434 kts | 153° |
| 2026-04-15 05:43 | -5.21882 | 38.54197 | 24525 ft | 430 kts | 153° |
| 2026-04-15 05:43 | -5.24536 | 38.55605 | 24125 ft | 426 kts | 152° |
| 2026-04-15 05:43 | -5.27161 | 38.56997 | 23719 ft | 423 kts | 152° |
| 2026-04-15 05:43 | -5.29787 | 38.58389 | 23320 ft | 420 kts | 153° |
| 2026-04-15 05:44 | -5.32365 | 38.59757 | 22916 ft | 417 kts | 153° |
| 2026-04-15 05:44 | -5.34928 | 38.61116 | 22510 ft | 415 kts | 153° |
| 2026-04-15 05:44 | -5.37498 | 38.62479 | 22093 ft | 413 kts | 153° |
| 2026-04-15 05:44 | -5.40034 | 38.63823 | 21717 ft | 410 kts | 152° |
| 2026-04-15 05:45 | -5.42562 | 38.65162 | 21346 ft | 408 kts | 152° |
| 2026-04-15 05:45 | -5.45094 | 38.66504 | 20973 ft | 405 kts | 152° |
| 2026-04-15 05:45 | -5.47597 | 38.67830 | 20602 ft | 402 kts | 152° |
| 2026-04-15 05:45 | -5.50046 | 38.69129 | 20245 ft | 399 kts | 152° |
| 2026-04-15 05:46 | -5.52534 | 38.70449 | 19869 ft | 397 kts | 152° |
| 2026-04-15 05:46 | -5.54946 | 38.71728 | 19507 ft | 394 kts | 152° |
| 2026-04-15 05:46 | -5.57373 | 38.73016 | 19139 ft | 392 kts | 151° |
| 2026-04-15 05:46 | -5.59788 | 38.74298 | 18781 ft | 389 kts | 151° |
| 2026-04-15 05:47 | -5.62197 | 38.75576 | 18414 ft | 387 kts | 151° |
| 2026-04-15 05:47 | -5.64591 | 38.76847 | 18053 ft | 384 kts | 151° |
| 2026-04-15 05:47 | -5.66958 | 38.78103 | 17704 ft | 381 kts | 151° |
| 2026-04-15 05:47 | -5.69294 | 38.79342 | 17341 ft | 378 kts | 151° |
| 2026-04-15 05:48 | -5.71641 | 38.80587 | 16975 ft | 376 kts | 150° |
| 2026-04-15 05:48 | -5.73974 | 38.81825 | 16606 ft | 374 kts | 150° |
| 2026-04-15 05:48 | -5.76260 | 38.83039 | 16236 ft | 372 kts | 150° |
| 2026-04-15 05:48 | -5.78542 | 38.84253 | 15863 ft | 370 kts | 150° |
| 2026-04-15 05:49 | -5.80857 | 38.85482 | 15486 ft | 368 kts | 150° |
| 2026-04-15 05:49 | -5.83093 | 38.86671 | 15121 ft | 366 kts | 150° |
| 2026-04-15 05:49 | -5.85362 | 38.87877 | 14740 ft | 365 kts | 150° |
| 2026-04-15 05:49 | -5.87600 | 38.89066 | 14354 ft | 363 kts | 150° |
| 2026-04-15 05:50 | -5.89845 | 38.90258 | 13993 ft | 362 kts | 150° |
| 2026-04-15 05:50 | -5.92070 | 38.91441 | 13634 ft | 360 kts | 150° |
| 2026-04-15 05:50 | -5.96483 | 38.93784 | 12907 ft | 356 kts | 150° |
| 2026-04-15 05:51 | -5.98702 | 38.94965 | 12554 ft | 354 kts | 150° |
| 2026-04-15 05:51 | -6.00859 | 38.96111 | 12203 ft | 351 kts | 150° |
| 2026-04-15 05:51 | -6.03049 | 38.97275 | 11858 ft | 349 kts | 150° |
| 2026-04-15 05:51 | -6.05185 | 38.98412 | 11508 ft | 346 kts | 150° |
| 2026-04-15 05:52 | -6.07316 | 38.99545 | 11148 ft | 345 kts | 150° |
| 2026-04-15 05:52 | -6.09476 | 39.00693 | 10780 ft | 343 kts | 150° |
| 2026-04-15 05:52 | -6.11599 | 39.01823 | 10440 ft | 340 kts | 150° |
| 2026-04-15 05:52 | -6.13662 | 39.02919 | 10202 ft | 334 kts | 150° |
| 2026-04-15 05:53 | -6.15705 | 39.04005 | 10035 ft | 326 kts | 150° |
| 2026-04-15 05:53 | -6.17705 | 39.05068 | 9992 ft | 314 kts | 149° |
| 2026-04-15 05:53 | -6.19602 | 39.06077 | 9955 ft | 302 kts | 149° |
| 2026-04-15 05:53 | -6.21437 | 39.07053 | 9925 ft | 291 kts | 149° |
| 2026-04-15 05:54 | -6.23215 | 39.08000 | 9872 ft | 281 kts | 149° |
| 2026-04-15 05:54 | -6.24950 | 39.08926 | 9594 ft | 281 kts | 149° |
| 2026-04-15 05:54 | -6.26661 | 39.09839 | 9324 ft | 280 kts | 149° |
| 2026-04-15 05:54 | -6.28392 | 39.10762 | 9064 ft | 279 kts | 149° |
| 2026-04-15 05:55 | -6.30129 | 39.11686 | 8806 ft | 277 kts | 149° |
| 2026-04-15 05:55 | -6.31837 | 39.12597 | 8543 ft | 276 kts | 149° |
| 2026-04-15 05:55 | -6.33545 | 39.13506 | 8282 ft | 275 kts | 149° |
| 2026-04-15 05:55 | -6.35246 | 39.14412 | 8024 ft | 274 kts | 149° |
| 2026-04-15 05:56 | -6.36925 | 39.15306 | 7768 ft | 273 kts | 149° |
| 2026-04-15 05:56 | -6.38616 | 39.16208 | 7507 ft | 272 kts | 150° |
| 2026-04-15 05:56 | -6.40287 | 39.17097 | 7256 ft | 270 kts | 150° |
| 2026-04-15 05:56 | -6.41962 | 39.17988 | 7003 ft | 269 kts | 149° |
| 2026-04-15 05:57 | -6.43640 | 39.18881 | 6749 ft | 268 kts | 149° |
| 2026-04-15 05:57 | -6.45294 | 39.19761 | 6499 ft | 267 kts | 149° |
| 2026-04-15 05:57 | -6.46955 | 39.20646 | 6247 ft | 266 kts | 149° |
| 2026-04-15 05:57 | -6.48578 | 39.21512 | 6001 ft | 265 kts | 149° |
| 2026-04-15 05:58 | -6.50215 | 39.22386 | 5750 ft | 264 kts | 150° |
| 2026-04-15 05:58 | -6.51861 | 39.23264 | 5497 ft | 263 kts | 150° |
| 2026-04-15 05:58 | -6.53472 | 39.24123 | 5252 ft | 262 kts | 150° |
| 2026-04-15 05:58 | -6.55097 | 39.24989 | 5000 ft | 262 kts | 150° |
| 2026-04-15 05:59 | -6.56702 | 39.25843 | 4752 ft | 261 kts | 150° |
| 2026-04-15 05:59 | -6.58333 | 39.26712 | 4500 ft | 261 kts | 150° |
| 2026-04-15 05:59 | -6.59935 | 39.27567 | 4253 ft | 260 kts | 150° |
| 2026-04-15 05:59 | -6.61546 | 39.28426 | 4004 ft | 260 kts | 150° |
| 2026-04-15 06:00 | -6.63157 | 39.29285 | 3756 ft | 260 kts | 150° |
| 2026-04-15 06:00 | -6.64748 | 39.30135 | 3512 ft | 259 kts | 150° |
| 2026-04-15 06:00 | -6.66357 | 39.30993 | 3266 ft | 259 kts | 151° |
| 2026-04-15 06:00 | -6.67945 | 39.31840 | 3022 ft | 259 kts | 151° |
| 2026-04-15 06:01 | -6.69560 | 39.32702 | 2880 ft | 254 kts | 151° |
| 2026-04-15 06:01 | -6.71090 | 39.33516 | 2883 ft | 243 kts | 151° |
| 2026-04-15 06:01 | -6.72603 | 39.34204 | 2860 ft | 234 kts | 168° |
| 2026-04-15 06:01 | -6.74159 | 39.34010 | 2837 ft | 229 kts | 208° |
| 2026-04-15 06:02 | -6.75369 | 39.32922 | 2842 ft | 234 kts | 226° |
| 2026-04-15 06:02 | -6.76463 | 39.31687 | 2792 ft | 231 kts | 226° |
| 2026-04-15 06:02 | -6.77537 | 39.30542 | 2676 ft | 217 kts | 224° |
| 2026-04-15 06:02 | -6.78583 | 39.29488 | 2514 ft | 206 kts | 223° |
| 2026-04-15 06:03 | -6.79595 | 39.28486 | 2215 ft | 202 kts | 223° |
| 2026-04-15 06:03 | -6.80600 | 39.27484 | 1909 ft | 200 kts | 223° |
| 2026-04-15 06:03 | -6.81576 | 39.26507 | 1633 ft | 196 kts | 223° |
| 2026-04-15 06:03 | -6.82533 | 39.25547 | 1360 ft | 186 kts | 223° |
| 2026-04-15 06:04 | -6.83434 | 39.24645 | 1096 ft | 179 kts | 223° |
| 2026-04-15 06:04 | -6.84293 | 39.23785 | 858 ft | 173 kts | 224° |
| 2026-04-15 06:04 | -6.85137 | 39.22939 | 617 ft | 167 kts | 224° |
| 2026-04-15 06:04 | -6.85955 | 39.22115 | 382 ft | 163 kts | 225° |
| 2026-04-15 06:05 | -6.86751 | 39.21326 | 195 ft | 155 kts | 224° |
| 2026-04-15 06:05 | -6.87442 | 39.20636 | 190 ft | 118 kts | 226° |
| 2026-04-15 06:05 | -6.87892 | 39.20180 | 194 ft | 66 kts | 226° |
| 2026-04-15 06:05 | -6.88066 | 39.19980 | 196 ft | 18 kts | 271° |
| 2026-04-15 06:06 | -6.88020 | 39.19917 | 197 ft | 0 kts | 335° |
| 2026-04-15 06:06 | -6.88007 | 39.19911 | 197 ft | 3 kts | 334° |
| 2026-04-15 06:07 | -6.87975 | 39.19904 | 197 ft | 5 kts | 2° |
| 2026-04-15 06:07 | -6.87922 | 39.19913 | 198 ft | 9 kts | 21° |
| 2026-04-15 06:07 | -6.87855 | 39.19965 | 198 ft | 14 kts | 46° |
| 2026-04-15 06:07 | -6.87769 | 39.20056 | 197 ft | 21 kts | 46° |
| 2026-04-15 06:08 | -6.87655 | 39.20176 | 195 ft | 24 kts | 41° |
| 2026-04-15 06:08 | -6.87539 | 39.20296 | 194 ft | 13 kts | 47° |
| 2026-04-15 06:08 | -6.87469 | 39.20370 | 194 ft | 15 kts | 46° |
| 2026-04-15 06:08 | -6.87384 | 39.20453 | 192 ft | 18 kts | 43° |
| 2026-04-15 06:09 | -6.87287 | 39.20548 | 192 ft | 19 kts | 45° |
| 2026-04-15 06:09 | -6.87188 | 39.20647 | 192 ft | 20 kts | 44° |
| 2026-04-15 06:09 | -6.87092 | 39.20744 | 193 ft | 17 kts | 46° |
| 2026-04-15 06:09 | -6.87004 | 39.20836 | 191 ft | 19 kts | 46° |
| 2026-04-15 06:10 | -6.86906 | 39.20933 | 192 ft | 19 kts | 40° |
| 2026-04-15 06:10 | -6.86815 | 39.21018 | 191 ft | 17 kts | 43° |
| 2026-04-15 06:10 | -6.86733 | 39.21060 | 191 ft | 7 kts | 343° |
| 2026-04-15 06:10 | -6.86699 | 39.21056 | 191 ft | 4 kts | 14° |
| 2026-04-15 06:11 | -6.86660 | 39.21081 | 191 ft | 7 kts | 41° |
| 2026-04-15 06:11 | -6.86621 | 39.21093 | 192 ft | 6 kts | 343° |
| 2026-04-15 06:11 | -6.86589 | 39.21067 | 192 ft | 4 kts | 313° |
| 2026-04-15 06:11 | -6.86580 | 39.21057 | 193 ft | 0 kts | 314° |